createdAt,value
2023-05-23T00:02:32.837Z,12.35
2023-05-23T00:07:54.964Z,13.20
2023-05-23T00:13:15.600Z,13.43
2023-05-23T00:18:36.507Z,13.77
2023-05-23T00:23:58.782Z,13.68
2023-05-23T00:29:20.142Z,13.63
2023-05-23T00:34:40.751Z,12.75
2023-05-23T00:40:03.298Z,11.15
2023-05-23T00:45:24.301Z,10.88
2023-05-23T00:50:45.690Z,9.65
2023-05-23T00:56:08.093Z,9.73
2023-05-23T01:01:28.659Z,9.23
2023-05-23T01:06:49.588Z,8.90
2023-05-23T01:12:20.881Z,8.15
2023-05-23T01:17:52.159Z,8.90
2023-05-23T01:23:36.075Z,7.93
2023-05-23T01:29:04.557Z,7.32
2023-05-23T01:34:25.506Z,7.88
2023-05-23T01:39:46.255Z,7.53
2023-05-23T01:45:10.334Z,7.38
2023-05-23T01:50:32.477Z,7.85
2023-05-23T01:55:53.255Z,7.38
2023-05-23T02:01:16.028Z,8.18
2023-05-23T02:06:36.928Z,8.52
2023-05-23T02:11:58.054Z,8.35
2023-05-23T02:17:20.011Z,8.02
2023-05-23T02:22:41.132Z,8.70
2023-05-23T02:28:01.941Z,8.70
2023-05-23T02:33:24.058Z,8.43
2023-05-23T02:38:45.235Z,7.68
2023-05-23T02:44:06.305Z,7.00
2023-05-23T02:49:28.566Z,7.55
2023-05-23T02:54:49.209Z,7.85
2023-05-23T03:00:11.010Z,7.53
2023-05-23T03:05:33.193Z,5.78
2023-05-23T03:10:54.069Z,5.97
2023-05-23T03:16:15.005Z,6.25
2023-05-23T03:21:37.193Z,6.38
2023-05-23T03:26:58.314Z,5.20
2023-05-23T03:32:19.075Z,5.18
2023-05-23T03:37:41.596Z,5.38
2023-05-23T03:43:03.760Z,5.38
2023-05-23T03:48:24.454Z,5.93
2023-05-23T03:53:46.733Z,4.88
2023-05-23T03:59:07.814Z,5.60
2023-05-23T04:04:29.609Z,5.47
2023-05-23T04:09:52.230Z,4.88
2023-05-23T04:15:13.334Z,5.28
2023-05-23T04:20:34.101Z,5.20
2023-05-23T04:25:56.297Z,4.45
2023-05-23T04:31:17.059Z,4.05
2023-05-23T04:36:37.902Z,3.90
2023-05-23T04:42:00.277Z,4.20
2023-05-23T04:47:21.301Z,4.10
2023-05-23T04:52:42.126Z,4.45
2023-05-23T04:58:04.475Z,3.58
2023-05-23T05:03:25.647Z,4.53
2023-05-23T05:08:46.559Z,3.22
2023-05-23T05:14:08.867Z,3.08
2023-05-23T05:19:30.164Z,2.85
2023-05-23T05:24:51.287Z,2.75
2023-05-23T05:30:14.223Z,2.60
2023-05-23T05:35:36.049Z,3.53
2023-05-23T05:40:56.801Z,3.05
2023-05-23T05:46:19.127Z,2.50
2023-05-23T05:51:40.381Z,3.88
2023-05-23T05:57:01.325Z,3.17
2023-05-23T06:02:23.694Z,3.30
2023-05-23T06:07:44.738Z,3.08
2023-05-23T06:13:05.647Z,3.42
2023-05-23T06:18:27.853Z,3.88
2023-05-23T06:23:48.446Z,3.35
2023-05-23T06:29:09.241Z,3.28
2023-05-23T06:34:31.628Z,3.22
2023-05-23T06:39:52.823Z,3.50
2023-05-23T06:45:16.394Z,3.40
2023-05-23T06:50:39.549Z,3.65
2023-05-23T06:56:03.895Z,3.42
2023-05-23T07:01:24.897Z,2.85
2023-05-23T07:06:47.128Z,2.33
2023-05-23T07:12:08.215Z,2.83
2023-05-23T07:17:29.762Z,2.88
2023-05-23T07:22:52.317Z,6.90
2023-05-23T07:28:13.355Z,3.30
2023-05-23T07:33:34.278Z,2.72
2023-05-23T07:38:56.442Z,2.38
2023-05-23T07:44:19.883Z,2.25
2023-05-23T07:49:42.108Z,2.58
2023-05-23T07:55:04.800Z,2.88
2023-05-23T08:00:26.014Z,2.20
2023-05-23T08:05:47.757Z,2.35
2023-05-23T08:11:10.021Z,2.72
2023-05-23T08:16:31.175Z,2.97
2023-05-23T08:21:51.893Z,2.70
2023-05-23T08:27:14.214Z,2.00
2023-05-23T08:32:35.257Z,2.22
2023-05-23T08:37:55.799Z,3.03
2023-05-23T08:43:18.080Z,2.88
2023-05-23T08:48:43.541Z,2.40
2023-05-23T08:54:05.707Z,3.72
2023-05-23T08:59:29.492Z,2.65
2023-05-23T09:04:50.566Z,2.00
2023-05-23T09:10:11.515Z,2.83
2023-05-23T09:15:33.897Z,8.70
2023-05-23T09:20:54.833Z,3.03
2023-05-23T09:26:17.225Z,2.95
2023-05-23T09:31:39.792Z,2.65
2023-05-23T09:37:01.157Z,2.50
2023-05-23T09:42:23.274Z,2.78
2023-05-23T09:47:52.193Z,2.47
2023-05-23T09:53:13.154Z,3.72
2023-05-23T09:58:37.028Z,3.28
2023-05-23T10:04:01.350Z,3.38
2023-05-23T10:09:25.090Z,2.63
2023-05-23T10:14:52.141Z,3.30
2023-05-23T10:25:38.089Z,4.95
2023-05-23T10:30:59.694Z,2.70
2023-05-23T10:36:28.260Z,2.25
2023-05-23T10:41:53.291Z,2.22
2023-05-23T10:47:26.883Z,2.60
2023-05-23T10:52:54.021Z,2.63
2023-05-23T10:58:18.196Z,2.15
2023-05-23T11:03:54.252Z,3.05
2023-05-23T11:14:55.695Z,1.67
2023-05-23T11:20:18.874Z,2.38
2023-05-23T11:25:45.598Z,2.25
2023-05-23T11:31:07.772Z,2.58
2023-05-23T11:36:29.120Z,2.10
2023-05-23T11:42:02.090Z,1.90
2023-05-23T11:47:23.060Z,2.60
2023-05-23T11:52:44.053Z,2.10
2023-05-23T11:58:06.779Z,2.25
2023-05-23T12:03:27.958Z,2.03
2023-05-23T12:08:49.496Z,2.03
2023-05-23T12:14:16.632Z,3.00
2023-05-23T12:19:38.279Z,2.30
2023-05-23T12:24:59.536Z,2.05
2023-05-23T12:30:22.044Z,2.38
2023-05-23T12:35:44.643Z,2.65
2023-05-23T12:41:10.178Z,1.98
2023-05-23T12:46:32.696Z,2.75
2023-05-23T12:51:53.837Z,2.30
2023-05-23T12:57:14.857Z,1.73
2023-05-23T13:02:37.319Z,2.60
2023-05-23T13:07:58.051Z,2.10
2023-05-23T13:13:19.150Z,2.13
2023-05-23T13:18:41.305Z,2.05
2023-05-23T13:24:02.629Z,2.38
2023-05-23T13:29:23.315Z,1.90
2023-05-23T13:34:45.791Z,2.60
2023-05-23T13:40:08.463Z,2.15
2023-05-23T13:45:29.333Z,2.22
2023-05-23T13:50:51.711Z,2.47
2023-05-23T13:56:12.620Z,1.77
2023-05-23T14:01:33.676Z,2.72
2023-05-23T14:06:56.484Z,1.67
2023-05-23T14:12:17.444Z,2.10
2023-05-23T14:17:38.156Z,2.00
2023-05-23T14:23:00.550Z,2.50
2023-05-23T14:28:21.696Z,2.30
2023-05-23T14:33:42.473Z,2.10
2023-05-23T14:39:04.782Z,1.92
2023-05-23T14:44:25.527Z,2.67
2023-05-23T14:49:46.299Z,2.33
2023-05-23T14:55:09.431Z,1.92
2023-05-23T15:00:30.314Z,1.92
2023-05-23T15:05:51.274Z,2.50
2023-05-23T15:11:13.750Z,1.70
2023-05-23T15:16:34.763Z,1.73
2023-05-23T15:21:55.371Z,2.50
2023-05-23T15:27:20.601Z,2.15
2023-05-23T15:32:41.512Z,2.45
2023-05-23T15:38:02.402Z,1.70
2023-05-23T15:43:24.526Z,1.90
2023-05-23T15:48:45.081Z,1.88
2023-05-23T15:54:06.353Z,1.80
2023-05-23T15:59:29.043Z,2.13
2023-05-23T16:04:50.039Z,1.30
2023-05-23T16:10:11.385Z,2.30
2023-05-23T16:15:33.554Z,1.67
2023-05-23T16:20:54.630Z,1.95
2023-05-23T16:26:17.120Z,2.40
2023-05-23T16:31:39.480Z,2.30
2023-05-23T16:37:00.584Z,1.88
2023-05-23T16:42:21.452Z,1.80
2023-05-23T16:47:43.706Z,1.67
2023-05-23T16:53:04.973Z,3.05
2023-05-23T16:58:26.016Z,2.40
2023-05-23T17:03:48.635Z,2.13
2023-05-23T17:09:09.360Z,1.77
2023-05-23T17:14:30.376Z,2.03
2023-05-23T17:19:52.614Z,2.22
2023-05-23T17:25:13.795Z,2.10
2023-05-23T17:30:34.579Z,2.60
2023-05-23T17:35:56.681Z,2.70
2023-05-23T17:41:17.642Z,2.88
2023-05-23T17:46:39.077Z,2.17
2023-05-23T17:52:01.315Z,2.20
2023-05-23T17:57:22.329Z,2.38
2023-05-23T18:02:43.241Z,2.30
2023-05-23T18:08:05.437Z,2.60
2023-05-23T18:13:26.114Z,2.50
2023-05-23T18:18:47.056Z,2.53
2023-05-23T18:24:09.390Z,2.60
2023-05-23T18:29:30.120Z,2.53
2023-05-23T18:34:51.192Z,2.28
2023-05-23T18:40:14.050Z,2.53
2023-05-23T18:45:34.851Z,2.00
2023-05-23T18:50:55.657Z,3.20
2023-05-23T18:56:17.940Z,2.70
2023-05-23T19:01:38.595Z,2.63
2023-05-23T19:06:59.346Z,2.58
2023-05-23T19:12:21.398Z,2.22
2023-05-23T19:17:43.307Z,2.45
2023-05-23T19:23:04.401Z,2.78
2023-05-23T19:28:28.226Z,2.53
2023-05-23T19:33:49.084Z,3.25
2023-05-23T19:39:09.747Z,2.47
2023-05-23T19:44:32.238Z,3.22
2023-05-23T19:49:53.081Z,2.30
2023-05-23T19:55:16.914Z,3.75
2023-05-23T20:00:39.221Z,3.13
2023-05-23T20:06:02.870Z,3.00
2023-05-23T20:11:23.579Z,3.67
2023-05-23T20:16:45.990Z,3.75
2023-05-23T20:22:06.968Z,3.28
2023-05-23T20:27:27.993Z,3.75
2023-05-23T20:32:50.701Z,3.92
2023-05-23T20:38:11.599Z,4.38
2023-05-23T20:43:32.382Z,3.30
2023-05-23T20:48:58.397Z,4.10
2023-05-23T20:54:23.236Z,3.67
2023-05-23T20:59:44.971Z,3.50
2023-05-23T21:05:15.883Z,3.88
2023-05-23T21:10:38.401Z,3.83
2023-05-23T21:16:00.868Z,3.58
2023-05-23T21:21:24.169Z,3.90
2023-05-23T21:26:45.639Z,3.38
2023-05-23T21:32:06.306Z,4.25
2023-05-23T21:37:28.579Z,3.65
2023-05-23T21:42:49.532Z,3.45
2023-05-23T21:48:10.183Z,3.60
2023-05-23T21:53:32.411Z,3.42
2023-05-23T21:58:53.432Z,4.07
2023-05-23T22:04:14.302Z,4.65
2023-05-23T22:09:36.676Z,3.65
2023-05-23T22:14:57.945Z,3.40
2023-05-23T22:20:19.134Z,3.72
2023-05-23T22:25:41.397Z,3.40
2023-05-23T22:31:02.427Z,3.08
2023-05-23T22:36:23.365Z,4.05
2023-05-23T22:41:45.518Z,3.78
2023-05-23T22:47:06.707Z,3.60
2023-05-23T22:52:27.298Z,3.95
2023-05-23T22:57:49.645Z,3.55
2023-05-23T23:03:10.322Z,3.92
2023-05-23T23:08:31.639Z,3.42
2023-05-23T23:13:53.975Z,3.47
2023-05-23T23:19:15.127Z,3.05
2023-05-23T23:24:38.680Z,3.40
2023-05-23T23:30:00.755Z,3.60
2023-05-23T23:35:22.334Z,3.70
2023-05-23T23:40:43.518Z,4.22
2023-05-23T23:46:06.165Z,3.40
2023-05-23T23:51:27.035Z,4.20
2023-05-23T23:56:47.929Z,3.50
